Nasco Pearl — VRHS2 — position and weather

sailwx.info

Track history (hours):
 
Tides and Currents Weather Stations Pressure Air Temp Water Temp Dewpoint Dewpoint Depression Visibility Wind Speed Wind Dir Waves Ship Positions

Nasco Pearl

Last reported at 2017-May-22 18:13 UTC. Time now 2017-Oct-22 15:18 UTC.
Position S 30°58' E 030°32'.
Warning: this ship's position is months out of date.

Length 189 m; draft 11 m.

Type: Cargo ship. MMSI: 477982400.

Date/timePositionNaut miles runAvg speedWind from/ knotsBaromVisibWave heightAir tempDewpointWater temp
2017-May-22 18:13S 30°58' E 030°32'313.9
2017-May-22 17:58S 30°55' E 030°34'613.9
2017-May-22 17:31S 30°49' E 030°38'713.9
2017-May-22 17:00S 30°43' E 030°42'713.5
2017-May-22 16:30S 30°37' E 030°46'713.4
2017-May-22 16:00S 30°32' E 030°50'713.4
2017-May-22 15:31S 30°26' E 030°54'713.0
2017-May-22 15:01S 30°20' E 030°58'713.0
2017-May-22 14:30S 30°15' E 031°02'613.1
2017-May-22 14:01S 30°09' E 031°06'612.7
2017-May-22 13:30S 30°04' E 031°09'611.9
2017-May-22 13:00S 29°58' E 031°11'510.5
2017-May-22 12:30S 29°53' E 031°10'2 3.6
2017-May-22 12:00S 29°51' E 031°12'3 6.5
2017-May-22 11:30S 29°50' E 031°15'511.0
2017-May-22 11:01S 29°48' E 031°21'612.5
2017-May-22 10:31S 29°45' E 031°27'612.0
2017-May-22 10:01S 29°42' E 031°33'612.3
2017-May-22 09:31S 29°38' E 031°38'612.2
2017-May-22 09:00S 29°33' E 031°43'612.2
2017-May-22 08:30S 29°29' E 031°48'612.2
2017-May-22 08:01S 29°25' E 031°53'612.0
2017-May-22 07:30S 29°20' E 031°58'611.8
2017-May-22 07:01S 29°16' E 032°03'611.8
2017-May-22 06:31S 29°12' E 032°07'612.2
2017-May-22 06:01S 29°08' E 032°12'612.1
2017-May-22 05:30S 29°03' E 032°17'612.7
2017-May-22 05:00S 28°59' E 032°23'612.8
2017-May-22 04:30S 28°54' E 032°28'613.0
2017-May-22 04:00S 28°50' E 032°33'2912.8
2017-May-22 01:43S 28°29' E 032°56'412.9
2017-May-22 01:25S 28°26' E 032°59'513.0
2017-May-22 01:00S 28°22' E 033°04'812.7
2017-May-22 00:24S 28°17' E 033°10'612.3
2017-May-21 23:56S 28°13' E 033°14'712.3
2017-May-21 23:24S 28°08' E 033°19'4312.5
2017-May-21 19:58S 27°37' E 033°54'  
Track history (hours):
 
Tides and Currents Weather Stations Pressure Air Temp Water Temp Dewpoint Dewpoint Depression Visibility Wind Speed Wind Dir Waves Ship Positions

Nasco Pearl

Last reported at 2017-May-22 18:13 UTC. Time now 2017-Oct-22 15:18 UTC.
Position S 30°58' E 030°32'.
Warning: this ship's position is months out of date.

Length 189 m; draft 11 m.

Type: Cargo ship. MMSI: 477982400.

Date/timePositionNaut miles runAvg speedWind from/ knotsBaromVisibWave heightAir tempDewpointWater temp
2017-May-22 18:13S 30°58' E 030°32'313.9
2017-May-22 17:58S 30°55' E 030°34'613.9
2017-May-22 17:31S 30°49' E 030°38'713.9
2017-May-22 17:00S 30°43' E 030°42'713.5
2017-May-22 16:30S 30°37' E 030°46'713.4
2017-May-22 16:00S 30°32' E 030°50'713.4
2017-May-22 15:31S 30°26' E 030°54'713.0
2017-May-22 15:01S 30°20' E 030°58'713.0
2017-May-22 14:30S 30°15' E 031°02'613.1
2017-May-22 14:01S 30°09' E 031°06'612.7
2017-May-22 13:30S 30°04' E 031°09'611.9
2017-May-22 13:00S 29°58' E 031°11'510.5
2017-May-22 12:30S 29°53' E 031°10'2 3.6
2017-May-22 12:00S 29°51' E 031°12'3 6.5
2017-May-22 11:30S 29°50' E 031°15'511.0
2017-May-22 11:01S 29°48' E 031°21'612.5
2017-May-22 10:31S 29°45' E 031°27'612.0
2017-May-22 10:01S 29°42' E 031°33'612.3
2017-May-22 09:31S 29°38' E 031°38'612.2
2017-May-22 09:00S 29°33' E 031°43'612.2
2017-May-22 08:30S 29°29' E 031°48'612.2
2017-May-22 08:01S 29°25' E 031°53'612.0
2017-May-22 07:30S 29°20' E 031°58'611.8
2017-May-22 07:01S 29°16' E 032°03'611.8
2017-May-22 06:31S 29°12' E 032°07'612.2
2017-May-22 06:01S 29°08' E 032°12'612.1
2017-May-22 05:30S 29°03' E 032°17'612.7
2017-May-22 05:00S 28°59' E 032°23'612.8
2017-May-22 04:30S 28°54' E 032°28'613.0
2017-May-22 04:00S 28°50' E 032°33'2912.8
2017-May-22 01:43S 28°29' E 032°56'412.9
2017-May-22 01:25S 28°26' E 032°59'513.0
2017-May-22 01:00S 28°22' E 033°04'812.7
2017-May-22 00:24S 28°17' E 033°10'612.3
2017-May-21 23:56S 28°13' E 033°14'712.3
2017-May-21 23:24S 28°08' E 033°19'4312.5
2017-May-21 19:58S 27°37' E 033°54'  

Dump ship's entire track history